createdAt,value
2022-08-27T00:02:06.696Z,5.07
2022-08-27T00:04:34.827Z,5.13
2022-08-27T00:07:44.747Z,5.30
2022-08-27T00:10:17.398Z,4.75
2022-08-27T00:12:44.597Z,4.13
2022-08-27T00:15:26.307Z,5.00
2022-08-27T00:17:53.350Z,3.88
2022-08-27T00:20:23.704Z,4.82
2022-08-27T00:23:14.473Z,4.00
2022-08-27T00:25:41.465Z,4.40
2022-08-27T00:28:08.523Z,4.70
2022-08-27T00:30:58.912Z,4.00
2022-08-27T00:33:28.716Z,4.07
2022-08-27T00:35:56.610Z,3.95
2022-08-27T00:38:42.946Z,3.90
2022-08-27T00:41:12.577Z,4.35
2022-08-27T00:44:04.481Z,4.05
2022-08-27T00:46:42.335Z,4.22
2022-08-27T00:49:51.073Z,3.97
2022-08-27T00:52:53.231Z,4.18
2022-08-27T00:55:27.665Z,4.43
2022-08-27T00:58:32.485Z,3.95
2022-08-27T01:01:00.749Z,4.63
2022-08-27T01:03:28.076Z,4.28
2022-08-27T01:05:59.155Z,4.60
2022-08-27T01:08:31.173Z,4.95
2022-08-27T01:11:00.706Z,5.68
2022-08-27T01:13:58.901Z,5.05
2022-08-27T01:16:24.059Z,5.57
2022-08-27T01:18:51.930Z,5.35
2022-08-27T01:21:59.739Z,5.25
2022-08-27T01:24:36.017Z,4.90
2022-08-27T01:27:08.068Z,5.20
2022-08-27T01:29:42.661Z,5.25
2022-08-27T01:32:16.872Z,5.55
2022-08-27T01:34:50.401Z,5.18
2022-08-27T01:37:23.720Z,5.22
2022-08-27T01:39:53.221Z,5.40
2022-08-27T01:42:24.937Z,6.03
2022-08-27T01:45:05.860Z,6.22
2022-08-27T01:47:34.541Z,5.57
2022-08-27T01:50:04.945Z,5.38
2022-08-27T01:52:32.147Z,6.60
2022-08-27T01:55:48.971Z,5.25
2022-08-27T01:58:18.016Z,6.53
2022-08-27T02:04:26.600Z,6.30
2022-08-27T02:06:53.621Z,6.57
2022-08-27T02:09:21.065Z,6.95
2022-08-27T02:11:48.129Z,6.53
2022-08-27T02:14:15.608Z,7.30
2022-08-27T02:16:49.785Z,7.13
2022-08-27T02:20:08.840Z,6.75
2022-08-27T02:22:35.990Z,6.80
2022-08-27T02:25:03.647Z,7.90
2022-08-27T02:27:55.045Z,7.13
2022-08-27T02:30:24.378Z,7.65
2022-08-27T02:32:53.150Z,7.13
2022-08-27T02:35:44.424Z,7.88
2022-08-27T02:38:13.382Z,6.80
2022-08-27T02:40:40.748Z,7.55
2022-08-27T02:43:29.897Z,7.63
2022-08-27T02:45:57.513Z,7.90
2022-08-27T02:48:25.583Z,7.25
2022-08-27T02:51:19.662Z,8.13
2022-08-27T02:53:46.876Z,8.77
2022-08-27T02:56:14.156Z,9.23
2022-08-27T02:58:49.717Z,8.30
2022-08-27T03:01:16.868Z,7.75
2022-08-27T03:04:18.928Z,8.90
2022-08-27T03:06:47.288Z,8.40
2022-08-27T03:09:14.552Z,8.23
2022-08-27T03:11:59.760Z,7.93
2022-08-27T03:14:26.755Z,7.10
2022-08-27T03:16:54.013Z,7.60
2022-08-27T03:19:24.209Z,7.63
2022-08-27T03:21:54.397Z,8.38
2022-08-27T03:24:21.918Z,8.20
2022-08-27T03:27:08.830Z,8.32
2022-08-27T03:29:36.903Z,8.10
2022-08-27T03:32:07.007Z,8.27
2022-08-27T03:35:25.287Z,7.80
2022-08-27T03:37:52.341Z,8.40
2022-08-27T03:40:19.957Z,8.65
2022-08-27T03:43:12.652Z,9.20
2022-08-27T03:46:00.637Z,8.15
2022-08-27T03:48:40.872Z,8.60
2022-08-27T03:51:13.995Z,8.60
2022-08-27T03:53:43.757Z,8.98
2022-08-27T03:56:13.204Z,8.82
2022-08-27T03:58:40.589Z,7.60
2022-08-27T04:01:08.582Z,8.60
2022-08-27T04:03:37.214Z,7.82
2022-08-27T04:06:04.680Z,8.93
2022-08-27T04:08:32.158Z,9.13
2022-08-27T04:11:48.844Z,9.43
2022-08-27T04:14:24.844Z,8.82
2022-08-27T04:16:57.870Z,9.80
2022-08-27T04:19:30.221Z,10.40
2022-08-27T04:22:08.204Z,9.82
2022-08-27T04:24:37.166Z,9.70
2022-08-27T04:27:05.878Z,9.45
2022-08-27T04:29:58.357Z,9.35
2022-08-27T04:32:27.384Z,9.20
2022-08-27T04:34:58.070Z,9.57
2022-08-27T04:37:44.959Z,9.13
2022-08-27T04:40:12.301Z,8.73
2022-08-27T04:42:39.310Z,8.85
2022-08-27T04:45:32.366Z,9.32
2022-08-27T04:48:00.452Z,9.48
2022-08-27T04:50:27.810Z,9.32
2022-08-27T04:53:18.166Z,10.90
2022-08-27T04:55:52.297Z,17.35
2022-08-27T04:58:21.856Z,11.65
2022-08-27T05:00:51.807Z,13.15
2022-08-27T05:03:23.765Z,14.85
2022-08-27T05:05:53.605Z,13.05
2022-08-27T05:08:20.836Z,15.93
2022-08-27T05:10:50.943Z,13.93
2022-08-27T05:13:23.339Z,13.93
2022-08-27T05:15:51.240Z,13.63
2022-08-27T05:18:18.256Z,14.38
2022-08-27T05:20:54.596Z,16.98
2022-08-27T05:23:22.024Z,17.13
2022-08-27T05:25:51.262Z,23.38
2022-08-27T05:28:39.217Z,16.92
2022-08-27T05:31:09.227Z,17.90
2022-08-27T05:33:38.859Z,14.95
2022-08-27T05:36:26.488Z,16.10
2022-08-27T05:38:55.754Z,16.83
2022-08-27T05:41:34.515Z,16.67
2022-08-27T05:46:53.865Z,16.08
2022-08-27T05:49:20.963Z,16.92
2022-08-27T05:51:53.230Z,17.50
2022-08-27T05:54:20.214Z,16.73
2022-08-27T05:57:24.759Z,16.95
2022-08-27T06:03:01.498Z,18.25
2022-08-27T06:05:28.549Z,17.77
2022-08-27T06:07:55.608Z,17.33
2022-08-27T06:10:24.644Z,18.95
2022-08-27T06:12:56.273Z,19.60
2022-08-27T06:15:23.939Z,17.63
2022-08-27T06:18:28.286Z,17.80
2022-08-27T06:20:55.515Z,17.13
2022-08-27T06:23:27.882Z,17.67
2022-08-27T06:25:57.024Z,18.73
2022-08-27T06:28:29.708Z,19.48
2022-08-27T06:31:08.982Z,17.98
2022-08-27T06:33:36.222Z,18.90
2022-08-27T06:36:05.856Z,18.60
2022-08-27T06:38:34.177Z,18.70
2022-08-27T06:41:03.133Z,19.08
2022-08-27T06:43:44.438Z,17.48
2022-08-27T06:46:17.495Z,19.35
2022-08-27T06:48:48.516Z,17.88
2022-08-27T06:51:18.780Z,20.58
2022-08-27T06:53:47.439Z,19.33
2022-08-27T06:56:17.198Z,18.75
2022-08-27T06:58:44.952Z,19.67
2022-08-27T07:01:17.830Z,19.83
2022-08-27T07:03:45.819Z,22.00
2022-08-27T07:06:14.600Z,19.90
2022-08-27T07:08:43.335Z,18.13
2022-08-27T07:11:12.086Z,18.40
2022-08-27T07:13:39.894Z,19.42
2022-08-27T07:16:10.057Z,20.55
2022-08-27T07:18:39.051Z,19.25
2022-08-27T07:21:08.877Z,20.75
2022-08-27T07:23:37.619Z,20.65
2022-08-27T07:26:10.872Z,22.63
2022-08-27T07:28:39.331Z,21.27
2022-08-27T07:31:11.290Z,20.67
2022-08-27T07:33:46.077Z,22.52
2022-08-27T07:36:19.051Z,21.02
2022-08-27T07:38:51.692Z,21.75
2022-08-27T07:41:30.587Z,22.65
2022-08-27T07:44:31.070Z,22.90
2022-08-27T07:47:01.827Z,23.48
2022-08-27T07:49:30.619Z,23.00
2022-08-27T07:51:58.928Z,24.25
2022-08-27T07:54:26.145Z,24.65
2022-08-27T07:56:55.039Z,22.95
2022-08-27T07:59:24.653Z,24.02
2022-08-27T08:01:52.396Z,23.15
2022-08-27T08:04:20.422Z,23.70
2022-08-27T08:06:49.248Z,24.83
2022-08-27T08:09:16.289Z,23.38
2022-08-27T08:11:43.355Z,23.95
2022-08-27T08:14:10.375Z,23.65
2022-08-27T08:16:37.848Z,23.38
2022-08-27T08:19:05.942Z,21.70
2022-08-27T08:21:32.968Z,22.55
2022-08-27T08:24:03.249Z,22.08
2022-08-27T08:26:30.241Z,20.52
2022-08-27T08:28:57.493Z,21.58
2022-08-27T08:31:25.006Z,20.58
2022-08-27T08:33:53.170Z,18.80
2022-08-27T08:36:20.183Z,18.05
2022-08-27T08:38:48.434Z,14.63
2022-08-27T08:41:50.717Z,15.70
2022-08-27T08:44:36.080Z,11.07
2022-08-27T08:47:18.871Z,9.38
2022-08-27T08:50:11.126Z,9.70
2022-08-27T08:53:10.247Z,4.32
2022-08-27T08:55:47.991Z,3.42
2022-08-27T08:58:37.657Z,3.10
2022-08-27T09:01:07.378Z,3.72
2022-08-27T09:03:40.906Z,3.42
2022-08-27T09:06:21.461Z,4.20
2022-08-27T09:08:49.239Z,4.30
2022-08-27T09:11:35.284Z,4.70
2022-08-27T09:14:10.380Z,4.63
2022-08-27T09:16:40.889Z,4.85
2022-08-27T09:19:12.969Z,4.60
2022-08-27T09:22:11.425Z,4.10
2022-08-27T09:24:54.754Z,4.55
2022-08-27T09:27:23.232Z,4.22
2022-08-27T09:29:57.425Z,4.25
2022-08-27T09:32:31.674Z,4.53
2022-08-27T09:35:01.173Z,4.10
2022-08-27T09:37:57.874Z,4.43
2022-08-27T09:40:32.473Z,4.38
2022-08-27T09:43:23.760Z,4.60
2022-08-27T09:45:58.754Z,4.68
2022-08-27T09:48:31.808Z,4.90
2022-08-27T09:51:07.876Z,4.57
2022-08-27T09:53:56.446Z,4.82
2022-08-27T09:56:31.691Z,4.90
2022-08-27T10:02:53.693Z,4.57
2022-08-27T10:05:54.079Z,4.70
2022-08-27T10:08:41.968Z,9.27
2022-08-27T10:11:22.259Z,6.18
2022-08-27T10:14:30.001Z,5.15
2022-08-27T10:17:02.591Z,5.47
2022-08-27T10:19:32.499Z,6.15
2022-08-27T10:22:11.533Z,4.93
2022-08-27T10:24:48.592Z,5.30
2022-08-27T10:28:01.543Z,6.82
2022-08-27T10:30:56.028Z,6.00
2022-08-27T10:33:50.634Z,5.53
2022-08-27T10:36:23.559Z,6.07
2022-08-27T10:38:58.712Z,5.25
2022-08-27T10:41:49.552Z,6.25
2022-08-27T10:44:22.620Z,5.45
2022-08-27T10:47:14.097Z,5.75
2022-08-27T10:50:04.295Z,4.93
2022-08-27T10:56:27.459Z,6.32
2022-08-27T10:59:02.833Z,5.78
2022-08-27T11:01:45.286Z,5.72
2022-08-27T11:04:23.668Z,5.40
2022-08-27T11:07:02.128Z,5.55
2022-08-27T11:09:50.791Z,4.95
2022-08-27T11:12:32.519Z,6.70
2022-08-27T11:15:12.988Z,5.95
2022-08-27T11:17:51.038Z,5.78
2022-08-27T11:20:45.705Z,5.10
2022-08-27T11:23:25.836Z,5.80
2022-08-27T11:26:02.127Z,6.07
2022-08-27T11:28:49.029Z,5.55
2022-08-27T11:31:28.283Z,6.15
2022-08-27T11:33:58.232Z,5.53
2022-08-27T11:36:34.180Z,5.35
2022-08-27T11:39:20.064Z,5.55
2022-08-27T11:42:09.839Z,5.95
2022-08-27T11:44:46.754Z,6.15
2022-08-27T11:47:15.705Z,5.32
2022-08-27T11:50:01.726Z,4.85
2022-08-27T11:52:37.603Z,5.03
2022-08-27T11:55:22.496Z,5.53
2022-08-27T11:58:02.183Z,4.55
2022-08-27T12:00:35.590Z,4.70
2022-08-27T12:03:35.461Z,5.43
2022-08-27T12:06:29.911Z,5.30
2022-08-27T12:09:14.477Z,4.97
2022-08-27T12:11:56.435Z,5.18
2022-08-27T12:14:45.512Z,5.00
2022-08-27T12:17:40.039Z,5.22
2022-08-27T12:20:10.211Z,4.90
2022-08-27T12:23:23.742Z,5.22
2022-08-27T12:26:15.642Z,4.85
2022-08-27T12:28:42.671Z,6.90
2022-08-27T12:31:09.995Z,5.05
2022-08-27T12:33:44.267Z,5.32
2022-08-27T12:36:33.931Z,5.30
2022-08-27T12:39:04.217Z,7.78
2022-08-27T12:41:44.278Z,5.00
2022-08-27T12:44:24.615Z,5.05
2022-08-27T12:47:02.028Z,5.30
2022-08-27T12:49:53.803Z,5.60
2022-08-27T12:52:44.010Z,4.88
2022-08-27T12:55:33.902Z,5.00
2022-08-27T12:58:14.852Z,4.95
2022-08-27T13:01:13.769Z,18.77
2022-08-27T13:03:45.871Z,7.38
2022-08-27T13:06:34.381Z,5.75
2022-08-27T13:09:07.387Z,5.70
2022-08-27T13:11:56.748Z,5.93
2022-08-27T13:14:27.090Z,5.55
2022-08-27T13:17:03.192Z,5.53
2022-08-27T13:19:32.140Z,5.78
2022-08-27T13:22:05.390Z,6.07
2022-08-27T13:24:47.748Z,5.95
2022-08-27T13:27:15.278Z,6.13
2022-08-27T13:29:43.799Z,6.50
2022-08-27T13:32:14.384Z,5.97
2022-08-27T13:34:42.093Z,5.45
2022-08-27T13:37:26.129Z,5.57
2022-08-27T13:39:57.375Z,5.60
2022-08-27T13:42:26.661Z,5.70
2022-08-27T13:45:02.827Z,5.45
2022-08-27T13:47:30.990Z,4.65
2022-08-27T13:50:14.423Z,5.28
2022-08-27T13:53:02.036Z,5.97
2022-08-27T13:55:30.556Z,6.00
2022-08-27T13:58:00.836Z,5.25
2022-08-27T14:00:34.965Z,5.68
2022-08-27T14:03:02.824Z,4.90
2022-08-27T14:05:34.072Z,5.00
2022-08-27T14:08:14.626Z,5.18
2022-08-27T14:10:46.776Z,5.50
2022-08-27T14:13:16.696Z,4.88
2022-08-27T14:15:49.358Z,5.22
2022-08-27T14:18:32.131Z,5.40
2022-08-27T14:21:09.596Z,5.40
2022-08-27T14:23:36.734Z,5.43
2022-08-27T14:26:04.096Z,4.85
2022-08-27T14:28:32.042Z,6.25
2022-08-27T14:30:59.091Z,6.70
2022-08-27T14:33:26.344Z,6.45
2022-08-27T14:35:53.788Z,6.70
2022-08-27T14:38:26.884Z,6.75
2022-08-27T14:40:55.130Z,7.32
2022-08-27T14:43:22.941Z,6.65
2022-08-27T14:45:52.534Z,8.25
2022-08-27T14:48:28.618Z,9.30
2022-08-27T14:50:56.896Z,9.20
2022-08-27T14:53:24.325Z,9.02
2022-08-27T14:55:52.164Z,9.23
2022-08-27T14:58:19.700Z,9.32
2022-08-27T15:00:47.153Z,7.55
2022-08-27T15:03:14.392Z,8.48
2022-08-27T15:05:41.342Z,8.43
2022-08-27T15:08:13.273Z,8.13
2022-08-27T15:10:41.009Z,7.70
2022-08-27T15:13:11.355Z,8.75
2022-08-27T15:15:39.123Z,8.38
2022-08-27T15:18:06.742Z,8.38
2022-08-27T15:20:34.490Z,8.90
2022-08-27T15:23:03.388Z,9.02
2022-08-27T15:25:30.937Z,7.82
2022-08-27T15:27:58.086Z,7.38
2022-08-27T15:30:28.790Z,7.13
2022-08-27T15:32:56.319Z,7.97
2022-08-27T15:35:29.009Z,8.00
2022-08-27T15:37:57.180Z,7.78
2022-08-27T15:40:26.042Z,8.55
2022-08-27T15:43:02.375Z,7.80
2022-08-27T15:45:31.373Z,8.13
2022-08-27T15:47:59.438Z,7.97
2022-08-27T15:50:28.882Z,8.25
2022-08-27T15:52:59.763Z,9.10
2022-08-27T15:55:31.417Z,8.30
2022-08-27T15:58:00.014Z,8.40
2022-08-27T16:00:28.765Z,8.70
2022-08-27T16:02:57.128Z,7.93
2022-08-27T16:05:24.279Z,8.90
2022-08-27T16:07:51.309Z,8.07
2022-08-27T16:10:18.522Z,7.47
2022-08-27T16:12:46.346Z,7.30
2022-08-27T16:15:14.355Z,7.45
2022-08-27T16:17:43.260Z,8.27
2022-08-27T16:20:12.915Z,8.35
2022-08-27T16:22:42.059Z,7.10
2022-08-27T16:25:13.136Z,6.85
2022-08-27T16:27:42.482Z,7.00
2022-08-27T16:30:10.055Z,7.63
2022-08-27T16:32:37.072Z,7.80
2022-08-27T16:35:04.566Z,8.18
2022-08-27T16:37:31.556Z,7.78
2022-08-27T16:39:58.682Z,7.95
2022-08-27T16:42:25.915Z,8.30
2022-08-27T16:44:53.102Z,8.15
2022-08-27T16:47:20.216Z,8.10
2022-08-27T16:50:05.567Z,8.48
2022-08-27T16:52:32.636Z,8.55
2022-08-27T16:55:00.335Z,8.57
2022-08-27T16:57:27.562Z,7.03
2022-08-27T16:59:55.981Z,7.43
2022-08-27T17:02:30.249Z,8.95
2022-08-27T17:05:07.216Z,7.53
2022-08-27T17:07:48.265Z,7.82
2022-08-27T17:10:19.770Z,8.32
2022-08-27T17:12:47.969Z,7.85
2022-08-27T17:15:17.162Z,8.57
2022-08-27T17:17:44.604Z,7.68
2022-08-27T17:20:12.883Z,6.43
2022-08-27T17:22:39.880Z,7.18
2022-08-27T17:25:07.679Z,7.60
2022-08-27T17:27:35.408Z,7.22
2022-08-27T17:30:02.473Z,6.22
2022-08-27T17:32:32.665Z,6.80
2022-08-27T17:35:05.691Z,4.85
2022-08-27T17:37:33.975Z,4.28
2022-08-27T17:40:01.120Z,4.22
2022-08-27T17:42:29.731Z,4.60
2022-08-27T17:44:57.409Z,5.50
2022-08-27T17:47:25.096Z,5.75
2022-08-27T17:49:52.903Z,5.50
2022-08-27T17:52:20.649Z,4.97
2022-08-27T17:54:54.325Z,5.05
2022-08-27T17:57:25.151Z,4.93
2022-08-27T17:59:54.066Z,5.18
2022-08-27T18:02:28.023Z,4.30
2022-08-27T18:04:55.510Z,12.35
2022-08-27T18:07:22.594Z,30.17
2022-08-27T18:09:50.051Z,109.13
2022-08-27T18:12:20.536Z,7.40
2022-08-27T18:14:54.590Z,5.78
2022-08-27T18:17:21.621Z,5.28
2022-08-27T18:19:51.250Z,5.13
2022-08-27T18:22:18.426Z,5.00
2022-08-27T18:24:46.446Z,4.63
2022-08-27T18:27:13.660Z,4.70
2022-08-27T18:29:41.488Z,4.47
2022-08-27T18:32:08.489Z,4.43
2022-08-27T18:34:35.555Z,4.25
2022-08-27T18:37:07.838Z,4.70
2022-08-27T18:39:39.350Z,4.97
2022-08-27T18:42:07.157Z,5.55
2022-08-27T18:44:36.945Z,5.93
2022-08-27T18:47:04.573Z,5.38
2022-08-27T18:49:33.794Z,5.47
2022-08-27T18:52:01.631Z,5.25
2022-08-27T18:54:31.504Z,5.95
2022-08-27T18:56:58.610Z,4.70
2022-08-27T18:59:27.374Z,4.78
2022-08-27T19:01:56.519Z,5.82
2022-08-27T19:04:24.736Z,7.35
2022-08-27T19:06:52.182Z,7.47
2022-08-27T19:09:21.286Z,5.55
2022-08-27T19:11:51.781Z,5.00
2022-08-27T19:14:19.137Z,5.13
2022-08-27T19:16:50.770Z,5.10
2022-08-27T19:19:18.866Z,6.15
2022-08-27T19:21:51.171Z,5.38
2022-08-27T19:24:20.344Z,5.80
2022-08-27T19:26:49.264Z,6.35
2022-08-27T19:29:16.810Z,5.82
2022-08-27T19:31:45.383Z,6.22
2022-08-27T19:34:12.829Z,5.93
2022-08-27T19:36:46.196Z,5.85
2022-08-27T19:39:14.021Z,6.32
2022-08-27T19:41:44.437Z,5.80
2022-08-27T19:44:11.614Z,6.28
2022-08-27T19:46:51.509Z,6.07
2022-08-27T19:49:26.762Z,6.63
2022-08-27T19:51:54.382Z,6.78
2022-08-27T19:54:22.030Z,6.55
2022-08-27T19:56:55.442Z,6.22
2022-08-27T19:59:22.869Z,6.45
2022-08-27T20:02:30.629Z,6.20
2022-08-27T20:05:17.050Z,5.88
2022-08-27T20:07:48.050Z,5.82
2022-08-27T20:10:16.824Z,6.75
2022-08-27T20:13:22.879Z,6.80
2022-08-27T20:15:51.423Z,6.68
2022-08-27T20:18:20.486Z,6.70
2022-08-27T20:20:51.395Z,6.38
2022-08-27T20:23:18.863Z,6.75
2022-08-27T20:25:46.649Z,7.22
2022-08-27T20:28:42.678Z,8.20
2022-08-27T20:31:10.528Z,7.70
2022-08-27T20:33:37.808Z,7.40
2022-08-27T20:36:19.169Z,7.70
2022-08-27T20:38:46.823Z,8.85
2022-08-27T20:41:14.337Z,8.15
2022-08-27T20:43:42.586Z,8.50
2022-08-27T20:46:11.024Z,7.90
2022-08-27T20:48:38.544Z,9.15
2022-08-27T20:51:06.122Z,8.45
2022-08-27T20:53:41.486Z,8.43
2022-08-27T20:56:08.974Z,8.80
2022-08-27T20:58:59.652Z,8.50
2022-08-27T21:01:30.272Z,8.45
2022-08-27T21:03:58.718Z,8.30
2022-08-27T21:06:30.034Z,9.32
2022-08-27T21:09:00.440Z,9.20
2022-08-27T21:11:27.764Z,9.75
2022-08-27T21:13:59.445Z,9.38
2022-08-27T21:16:26.910Z,8.82
2022-08-27T21:18:54.555Z,9.55
2022-08-27T21:21:33.135Z,9.77
2022-08-27T21:24:00.577Z,10.40
2022-08-27T21:26:36.367Z,9.50
2022-08-27T21:29:04.094Z,10.68
2022-08-27T21:31:31.605Z,10.77
2022-08-27T21:34:01.148Z,12.20
2022-08-27T21:36:28.846Z,10.75
2022-08-27T21:39:34.446Z,10.60
2022-08-27T21:42:02.085Z,9.77
2022-08-27T21:44:30.933Z,11.20
2022-08-27T21:47:47.924Z,10.73
2022-08-27T21:50:19.843Z,11.18
2022-08-27T21:52:50.493Z,11.18
2022-08-27T21:55:36.742Z,11.82
2022-08-27T21:58:04.485Z,11.75
2022-08-27T22:00:36.093Z,11.18
2022-08-27T22:03:10.481Z,11.98
2022-08-27T22:05:40.684Z,11.70
2022-08-27T22:08:09.073Z,11.45
2022-08-27T22:10:46.431Z,11.75
2022-08-27T22:13:14.464Z,11.73
2022-08-27T22:15:42.278Z,12.43
2022-08-27T22:18:19.734Z,11.38
2022-08-27T22:20:51.318Z,13.45
2022-08-27T22:23:18.672Z,12.15
2022-08-27T22:25:48.461Z,12.93
2022-08-27T22:28:16.129Z,12.57
2022-08-27T22:30:45.397Z,12.65
2022-08-27T22:33:22.930Z,11.70
2022-08-27T22:35:50.328Z,12.15
2022-08-27T22:38:20.723Z,11.65
2022-08-27T22:44:36.702Z,12.13
2022-08-27T22:47:04.419Z,11.52
2022-08-27T22:49:31.527Z,11.07
2022-08-27T22:52:39.423Z,12.00
2022-08-27T22:55:07.281Z,12.20
2022-08-27T22:57:35.765Z,11.90
2022-08-27T23:03:53.225Z,11.18
2022-08-27T23:06:31.853Z,12.07
2022-08-27T23:08:59.110Z,11.85
2022-08-27T23:11:26.552Z,12.20
2022-08-27T23:14:19.416Z,11.73
2022-08-27T23:16:46.862Z,13.63
2022-08-27T23:19:14.190Z,12.93
2022-08-27T23:21:48.465Z,12.13
2022-08-27T23:24:16.171Z,12.60
2022-08-27T23:30:02.122Z,12.23
2022-08-27T23:32:30.001Z,13.02
2022-08-27T23:34:57.868Z,12.25
2022-08-27T23:41:15.530Z,11.40
2022-08-27T23:43:59.262Z,13.02
2022-08-27T23:46:26.860Z,12.32
2022-08-27T23:48:54.475Z,12.80
2022-08-27T23:51:22.085Z,12.48
2022-08-27T23:53:49.468Z,13.00
2022-08-27T23:56:16.811Z,12.27
2022-08-27T23:58:44.079Z,12.52
